Time;durP1;ratioP1;P1;durP2;ratioP2;P2;SDS_P1;SDS_P2;PMS_P1;PMS_P2;Temp;Humidity;BMP_temperature;BMP_pressure;BME280_temperature;BME280_humidity;BME280_pressure;Samples;Min_cycle;Max_cycle;Signal;HPM_P1;HPM_P2
2021/11/14 00:00:48;;;;;;;;;;;13.80;99.90;;;;;;6105521;23;19916;-81
2021/11/14 00:03:14;;;;;;;;;;;13.80;99.90;;;;;;6106502;23;20270;-81
2021/11/14 00:05:40;;;;;;;;;;;13.90;99.90;;;;;;6105138;23;19929;-81
2021/11/14 00:08:07;;;;;;;;;;;14.00;99.90;;;;;;6106618;23;19928;-81
2021/11/14 00:10:33;;;;;;;;;;;14.00;99.90;;;;;;6132956;23;19905;-81
2021/11/14 00:12:58;;;;;;;;;;;14.10;99.90;;;;;;6109889;23;19904;-81
2021/11/14 00:15:24;;;;;;;;;;;14.10;99.90;;;;;;6132005;23;19912;-81
2021/11/14 00:17:50;;;;;;;;;;;14.10;99.90;;;;;;6131027;23;19957;-80
2021/11/14 00:20:16;;;;;;;;;;;14.10;99.90;;;;;;6104291;23;19911;-81
2021/11/14 00:22:42;;;;;;;;;;;14.10;99.90;;;;;;6104483;23;19912;-81
2021/11/14 00:25:09;;;;;;;;;;;14.10;99.90;;;;;;6105548;23;19909;-81
2021/11/14 00:27:34;;;;;;;;;;;14.00;99.90;;;;;;6130001;23;19909;-81
2021/11/14 00:30:00;;;;;;;;;;;14.00;99.90;;;;;;6130968;23;19921;-80
2021/11/14 00:32:26;;;;;;;;;;;13.90;99.90;;;;;;6105821;23;19909;-81
2021/11/14 00:34:51;;;;;;;;;;;13.90;99.90;;;;;;6106595;23;19912;-81
2021/11/14 00:37:19;;;;;;;;;;;13.90;99.90;;;;;;6106028;23;19905;-81
2021/11/14 00:39:45;;;;;;;;;;;13.90;99.90;;;;;;6132087;23;20329;-81
2021/11/14 00:42:11;;;;;;;;;;;13.90;99.90;;;;;;6133706;23;19932;-81
2021/11/14 00:44:36;;;;;;;;;;;13.80;99.90;;;;;;6117974;23;19920;-81
2021/11/14 00:47:03;;;;;;;;;;;13.80;99.90;;;;;;6120117;23;19916;-81
2021/11/14 00:49:29;;;;;;;;;;;13.80;99.90;;;;;;6144544;23;19916;-80
2021/11/14 00:51:54;;;;;;;;;;;13.80;99.90;;;;;;6145454;23;19909;-81
2021/11/14 00:54:20;;;;;;;;;;;13.80;99.90;;;;;;6143809;23;19983;-81
2021/11/14 00:56:46;;;;;;;;;;;13.80;99.90;;;;;;6117240;23;19957;-81
2021/11/14 00:59:12;;;;;;;;;;;13.90;99.90;;;;;;6144853;23;19909;-81
2021/11/14 01:01:38;;;;;;;;;;;13.90;99.90;;;;;;6145060;23;19893;-81
2021/11/14 01:04:03;;;;;;;;;;;13.90;99.90;;;;;;6150416;23;19909;-81
2021/11/14 01:06:29;;;;;;;;;;;13.90;99.90;;;;;;6119797;23;19909;-80
2021/11/14 01:08:55;;;;;;;;;;;13.90;99.90;;;;;;6120427;23;19909;-81
2021/11/14 01:11:21;;;;;;;;;;;13.90;99.90;;;;;;6121943;23;19912;-80
2021/11/14 01:13:47;;;;;;;;;;;13.80;99.90;;;;;;6122967;23;19940;-80
2021/11/14 01:16:15;;;;;;;;;;;13.80;99.90;;;;;;6120699;23;19893;-80
2021/11/14 01:18:40;;;;;;;;;;;13.80;99.90;;;;;;6147057;23;19905;-80
2021/11/14 01:21:08;;;;;;;;;;;13.70;99.90;;;;;;6118843;23;20096;-80
2021/11/14 01:23:34;;;;;;;;;;;13.70;99.90;;;;;;6143599;23;19988;-80
2021/11/14 01:26:00;;;;;;;;;;;13.70;99.90;;;;;;6142487;23;19973;-80
2021/11/14 01:28:25;;;;;;;;;;;13.80;99.90;;;;;;6118165;23;19908;-80
2021/11/14 01:30:53;;;;;;;;;;;13.90;99.90;;;;;;6117420;23;19905;-80
2021/11/14 01:33:19;;;;;;;;;;;13.90;99.90;;;;;;6141446;23;19893;-81
2021/11/14 01:35:46;;;;;;;;;;;14.00;99.90;;;;;;6142478;23;19964;-80
2021/11/14 01:38:12;;;;;;;;;;;14.00;99.90;;;;;;6144011;23;19916;-80
2021/11/14 01:40:48;;;;;;;;;;;14.00;99.90;;;;;;6144493;23;19963;-81
2021/11/14 01:43:17;;;;;;;;;;;14.10;99.90;;;;;;6144205;23;19913;-80
2021/11/14 01:45:43;;;;;;;;;;;14.10;99.90;;;;;;6107176;23;19936;-80
2021/11/14 01:48:09;;;;;;;;;;;14.10;99.90;;;;;;6108534;23;20330;-80
2021/11/14 01:50:35;;;;;;;;;;;14.10;99.90;;;;;;6136090;23;19912;-80
2021/11/14 01:53:01;;;;;;;;;;;14.10;99.90;;;;;;6140356;23;19905;-80
2021/11/14 01:55:28;;;;;;;;;;;14.10;99.90;;;;;;6118908;23;20253;-80
2021/11/14 01:57:54;;;;;;;;;;;14.10;99.90;;;;;;6119834;23;19909;-80
2021/11/14 02:00:24;;;;;;;;;;;14.10;99.90;;;;;;6120159;23;19909;-80
2021/11/14 02:02:50;;;;;;;;;;;14.20;99.90;;;;;;6144141;23;19911;-80
2021/11/14 02:05:17;;;;;;;;;;;14.20;99.90;;;;;;6144281;23;19905;-81
2021/11/14 02:07:42;;;;;;;;;;;14.20;99.90;;;;;;6144039;23;19905;-80
2021/11/14 02:10:09;;;;;;;;;;;14.20;99.90;;;;;;6117622;23;19920;-80
2021/11/14 02:12:35;;;;;;;;;;;14.20;99.90;;;;;;6144100;23;19936;-81
2021/11/14 02:15:00;;;;;;;;;;;14.20;99.90;;;;;;6143477;23;19905;-80
2021/11/14 02:17:26;;;;;;;;;;;14.20;99.90;;;;;;6142540;23;19960;-80
2021/11/14 02:19:53;;;;;;;;;;;14.30;99.90;;;;;;6143211;23;19925;-80
2021/11/14 02:22:19;;;;;;;;;;;14.40;99.90;;;;;;6143857;23;19905;-80
2021/11/14 02:24:46;;;;;;;;;;;14.50;99.90;;;;;;6118787;23;19905;-80
2021/11/14 02:27:12;;;;;;;;;;;14.50;99.90;;;;;;6143460;23;19916;-80
2021/11/14 02:29:38;;;;;;;;;;;14.50;99.90;;;;;;6114116;23;19909;-80
2021/11/14 02:32:04;;;;;;;;;;;14.50;99.90;;;;;;6145726;23;19916;-80
2021/11/14 02:34:29;;;;;;;;;;;14.50;99.90;;;;;;6146189;23;19949;-80
2021/11/14 02:36:55;;;;;;;;;;;14.50;99.90;;;;;;6144689;23;19916;-80
2021/11/14 02:39:21;;;;;;;;;;;14.50;99.90;;;;;;6123212;23;19916;-80
2021/11/14 02:41:46;;;;;;;;;;;14.50;99.90;;;;;;6126408;23;19900;-80
2021/11/14 02:44:12;;;;;;;;;;;14.50;99.90;;;;;;6151143;23;19928;-80
2021/11/14 02:46:38;;;;;;;;;;;14.50;99.90;;;;;;6150312;23;19921;-80
2021/11/14 02:49:03;;;;;;;;;;;14.50;99.90;;;;;;6150623;23;19917;-80
2021/11/14 02:51:30;;;;;;;;;;;14.50;99.90;;;;;;6120515;23;20246;-80
2021/11/14 02:53:56;;;;;;;;;;;14.50;99.90;;;;;;6146261;23;19905;-80
2021/11/14 02:56:22;;;;;;;;;;;14.50;99.90;;;;;;6146725;23;19948;-80
2021/11/14 02:58:47;;;;;;;;;;;14.40;99.90;;;;;;6120667;23;19909;-80
2021/11/14 03:01:16;;;;;;;;;;;14.40;99.90;;;;;;6147419;23;19905;-80
2021/11/14 03:03:43;;;;;;;;;;;14.30;99.90;;;;;;6146695;23;19905;-80
2021/11/14 03:06:09;;;;;;;;;;;14.30;99.90;;;;;;6147258;23;19897;-80
2021/11/14 03:08:35;;;;;;;;;;;14.30;99.90;;;;;;6147510;23;19908;-80
2021/11/14 03:11:01;;;;;;;;;;;14.30;99.90;;;;;;6148389;23;19948;-81
2021/11/14 03:13:27;;;;;;;;;;;14.30;99.90;;;;;;6148496;23;19905;-81
2021/11/14 03:15:54;;;;;;;;;;;14.40;99.90;;;;;;6146145;23;19920;-79
2021/11/14 03:18:21;;;;;;;;;;;14.50;99.90;;;;;;6123523;23;19905;-81
2021/11/14 03:20:48;;;;;;;;;;;14.50;99.90;;;;;;6125467;23;19908;-81
2021/11/14 03:23:14;;;;;;;;;;;14.50;99.90;;;;;;6123259;23;19944;-81
2021/11/14 03:25:39;;;;;;;;;;;14.60;99.90;;;;;;6152111;23;19908;-81
2021/11/14 03:28:05;;;;;;;;;;;14.60;99.90;;;;;;6152182;23;19937;-80
2021/11/14 03:30:33;;;;;;;;;;;14.60;99.90;;;;;;6123787;23;19905;-81
2021/11/14 03:32:59;;;;;;;;;;;14.60;99.90;;;;;;6148519;23;19952;-81
2021/11/14 03:35:25;;;;;;;;;;;14.60;99.90;;;;;;6123263;23;19893;-81
2021/11/14 03:37:51;;;;;;;;;;;14.60;99.90;;;;;;6149247;23;19932;-81
2021/11/14 03:40:18;;;;;;;;;;;14.60;99.90;;;;;;6148528;23;19905;-81
2021/11/14 03:42:44;;;;;;;;;;;14.50;99.90;;;;;;6148669;23;19901;-81
2021/11/14 03:45:09;;;;;;;;;;;14.50;99.90;;;;;;6148926;23;19912;-81
2021/11/14 03:47:36;;;;;;;;;;;14.50;99.90;;;;;;6149254;23;19909;-81
2021/11/14 03:50:02;;;;;;;;;;;14.40;99.90;;;;;;6149022;23;19944;-81
2021/11/14 03:52:28;;;;;;;;;;;14.40;99.90;;;;;;6118995;23;19905;-81
2021/11/14 03:54:54;;;;;;;;;;;14.40;99.90;;;;;;6139964;23;19983;-81
2021/11/14 03:57:19;;;;;;;;;;;14.40;99.90;;;;;;6143274;23;19905;-81
2021/11/14 03:59:45;;;;;;;;;;;14.30;99.90;;;;;;6142851;23;19905;-82
2021/11/14 04:02:11;;;;;;;;;;;14.30;99.90;;;;;;6119828;23;19904;-81
2021/11/14 04:04:36;;;;;;;;;;;14.30;99.90;;;;;;6119706;23;19912;-81
2021/11/14 04:07:02;;;;;;;;;;;14.40;99.90;;;;;;6143536;23;19932;-81
2021/11/14 04:09:28;;;;;;;;;;;14.40;99.90;;;;;;6143283;23;19905;-80
2021/11/14 04:11:54;;;;;;;;;;;14.40;99.90;;;;;;6141111;23;19909;-81
2021/11/14 04:14:20;;;;;;;;;;;14.30;99.90;;;;;;6142811;23;19943;-81
2021/11/14 04:16:45;;;;;;;;;;;14.30;99.90;;;;;;6142803;23;19931;-80
2021/11/14 04:19:11;;;;;;;;;;;14.30;99.90;;;;;;6142367;23;19920;-80
2021/11/14 04:21:38;;;;;;;;;;;14.30;99.90;;;;;;6143041;23;19919;-81
2021/11/14 04:24:03;;;;;;;;;;;14.20;99.90;;;;;;6115696;23;19904;-81
2021/11/14 04:26:29;;;;;;;;;;;14.20;99.90;;;;;;6142380;23;19915;-81
2021/11/14 04:28:55;;;;;;;;;;;14.20;99.90;;;;;;6141593;23;19954;-80
2021/11/14 04:31:21;;;;;;;;;;;14.10;99.90;;;;;;6114965;23;19937;-81
2021/11/14 04:33:47;;;;;;;;;;;14.10;99.90;;;;;;6142423;23;19905;-81
2021/11/14 04:36:14;;;;;;;;;;;14.20;99.90;;;;;;6143050;23;19929;-80
2021/11/14 04:38:39;;;;;;;;;;;14.10;99.90;;;;;;6141416;23;19905;-80
2021/11/14 04:41:05;;;;;;;;;;;14.10;99.90;;;;;;6140834;23;19912;-80
2021/11/14 04:43:31;;;;;;;;;;;14.10;99.90;;;;;;6141603;23;19900;-80
2021/11/14 04:45:56;;;;;;;;;;;14.10;99.90;;;;;;6141002;23;19932;-80
2021/11/14 04:48:23;;;;;;;;;;;14.10;99.90;;;;;;6144148;23;19979;-81
2021/11/14 04:50:49;;;;;;;;;;;14.10;99.90;;;;;;6145266;23;19909;-80
2021/11/14 04:53:15;;;;;;;;;;;14.10;99.90;;;;;;6145311;23;19905;-81
2021/11/14 04:55:41;;;;;;;;;;;14.10;99.90;;;;;;6145896;23;19921;-80
2021/11/14 04:58:08;;;;;;;;;;;14.20;99.90;;;;;;6146655;23;19931;-81
2021/11/14 05:00:36;;;;;;;;;;;14.20;99.90;;;;;;6146022;23;19908;-81
2021/11/14 05:03:02;;;;;;;;;;;14.20;99.90;;;;;;6145904;23;19928;-81
2021/11/14 05:05:28;;;;;;;;;;;14.20;99.90;;;;;;6146047;23;19904;-81
2021/11/14 05:07:53;;;;;;;;;;;14.30;99.90;;;;;;6146511;23;19909;-81
2021/11/14 05:10:19;;;;;;;;;;;14.20;99.90;;;;;;6146134;23;19916;-80
2021/11/14 05:12:45;;;;;;;;;;;14.20;99.90;;;;;;6145343;23;19905;-80
2021/11/14 05:15:11;;;;;;;;;;;14.20;99.90;;;;;;6146204;23;20361;-80
2021/11/14 05:17:36;;;;;;;;;;;14.20;99.90;;;;;;6145350;23;19936;-81
2021/11/14 05:20:05;;;;;;;;;;;14.20;99.90;;;;;;6146809;23;19912;-81
2021/11/14 05:22:31;;;;;;;;;;;14.20;99.90;;;;;;6141651;23;20308;-81
2021/11/14 05:24:57;;;;;;;;;;;14.20;99.90;;;;;;6132197;23;19889;-80
2021/11/14 05:27:22;;;;;;;;;;;14.20;99.90;;;;;;6131287;23;20321;-81
2021/11/14 05:29:48;;;;;;;;;;;14.20;99.90;;;;;;6134647;23;19904;-81
2021/11/14 05:32:14;;;;;;;;;;;14.10;99.90;;;;;;6134471;23;19909;-81
2021/11/14 05:34:39;;;;;;;;;;;14.10;99.90;;;;;;6146383;23;19916;-81
2021/11/14 05:37:06;;;;;;;;;;;14.10;99.90;;;;;;6146088;23;19927;-80
2021/11/14 05:39:32;;;;;;;;;;;14.20;99.90;;;;;;6120734;23;20107;-80
2021/11/14 05:41:58;;;;;;;;;;;14.10;99.90;;;;;;6146175;23;19912;-81
2021/11/14 05:44:24;;;;;;;;;;;14.10;99.90;;;;;;6146008;23;19917;-80
2021/11/14 05:46:50;;;;;;;;;;;14.00;99.90;;;;;;6144846;23;19913;-81
2021/11/14 05:49:16;;;;;;;;;;;13.90;99.90;;;;;;6143177;23;19912;-80
2021/11/14 05:51:41;;;;;;;;;;;13.90;99.90;;;;;;6146194;23;19920;-80
2021/11/14 05:54:07;;;;;;;;;;;13.90;99.90;;;;;;6120116;23;19905;-80
2021/11/14 05:56:33;;;;;;;;;;;13.80;99.90;;;;;;6144783;23;19893;-80
2021/11/14 06:01:37;;;;;;;;;;;13.80;99.90;;;;;;6154395;23;19959;-80
2021/11/14 06:04:10;;;;;;;;;;;13.80;99.90;;;;;;6141548;23;19912;-80
2021/11/14 06:06:35;;;;;;;;;;;13.80;99.90;;;;;;6142583;23;19909;-80
2021/11/14 06:09:01;;;;;;;;;;;13.70;99.90;;;;;;6143093;23;19983;-80
2021/11/14 06:11:27;;;;;;;;;;;13.70;99.90;;;;;;6116084;23;19912;-80
2021/11/14 06:13:53;;;;;;;;;;;13.60;99.90;;;;;;6135689;23;19912;-80
2021/11/14 06:16:19;;;;;;;;;;;13.60;99.90;;;;;;6142454;23;19915;-80
2021/11/14 06:18:45;;;;;;;;;;;13.60;99.90;;;;;;6142088;23;19916;-80
2021/11/14 06:21:11;;;;;;;;;;;13.50;99.90;;;;;;6143332;23;19921;-80
2021/11/14 06:23:36;;;;;;;;;;;13.50;99.90;;;;;;6143353;23;19905;-80
2021/11/14 06:26:02;;;;;;;;;;;13.60;99.90;;;;;;6143465;23;19937;-80
2021/11/14 06:28:28;;;;;;;;;;;13.50;99.90;;;;;;6144661;23;19904;-80
2021/11/14 06:30:54;;;;;;;;;;;13.60;99.90;;;;;;6143764;23;19905;-79
2021/11/14 06:33:19;;;;;;;;;;;13.70;99.90;;;;;;6142770;23;19957;-81
2021/11/14 06:35:45;;;;;;;;;;;13.70;99.90;;;;;;6145218;23;19905;-80
2021/11/14 06:38:10;;;;;;;;;;;13.70;99.90;;;;;;6144908;23;19961;-80
2021/11/14 06:40:36;;;;;;;;;;;13.80;99.90;;;;;;6144933;23;19928;-81
2021/11/14 06:43:02;;;;;;;;;;;13.80;99.90;;;;;;6143489;23;19911;-80
2021/11/14 06:45:28;;;;;;;;;;;13.80;99.90;;;;;;6142771;23;19936;-80
2021/11/14 06:47:53;;;;;;;;;;;13.80;99.90;;;;;;6143887;23;19931;-80
2021/11/14 06:50:19;;;;;;;;;;;13.80;99.90;;;;;;6144390;23;19928;-80
2021/11/14 06:52:45;;;;;;;;;;;13.80;99.90;;;;;;6143257;23;19984;-80
2021/11/14 06:55:12;;;;;;;;;;;13.80;99.90;;;;;;6117499;23;19909;-80
2021/11/14 06:57:38;;;;;;;;;;;13.80;99.90;;;;;;6116761;23;19909;-80
2021/11/14 07:00:06;;;;;;;;;;;13.70;99.90;;;;;;6143659;23;19909;-80
2021/11/14 07:02:31;;;;;;;;;;;13.60;99.90;;;;;;6115644;23;19912;-80
2021/11/14 07:04:57;;;;;;;;;;;13.60;99.90;;;;;;6140111;23;19913;-80
2021/11/14 07:07:22;;;;;;;;;;;13.60;99.90;;;;;;6139418;23;20293;-80
2021/11/14 07:09:48;;;;;;;;;;;13.60;99.90;;;;;;6141538;23;19916;-82
2021/11/14 07:12:14;;;;;;;;;;;13.60;99.90;;;;;;6142910;23;19913;-80
2021/11/14 07:14:39;;;;;;;;;;;13.60;99.90;;;;;;6143727;23;19905;-80
2021/11/14 07:17:05;;;;;;;;;;;13.70;99.90;;;;;;6143422;23;19905;-80
2021/11/14 07:19:31;;;;;;;;;;;13.70;99.90;;;;;;6143839;23;19965;-82
2021/11/14 07:21:57;;;;;;;;;;;13.80;99.90;;;;;;6143803;23;19905;-80
2021/11/14 07:24:23;;;;;;;;;;;13.90;99.90;;;;;;6144260;23;19905;-80
2021/11/14 07:26:48;;;;;;;;;;;13.90;99.90;;;;;;6143379;23;19949;-80
2021/11/14 07:29:14;;;;;;;;;;;14.00;99.90;;;;;;6143633;23;19909;-80
2021/11/14 07:31:40;;;;;;;;;;;14.10;99.90;;;;;;6143691;23;19932;-82
2021/11/14 07:34:06;;;;;;;;;;;14.10;99.90;;;;;;6142940;23;19909;-80
2021/11/14 07:36:32;;;;;;;;;;;14.20;99.90;;;;;;6143818;23;19905;-81
2021/11/14 07:38:58;;;;;;;;;;;14.20;99.90;;;;;;6144040;23;19905;-80
2021/11/14 07:41:24;;;;;;;;;;;14.20;99.90;;;;;;6144510;23;20324;-83
2021/11/14 07:43:49;;;;;;;;;;;14.30;99.90;;;;;;6144808;23;19929;-81
2021/11/14 07:46:16;;;;;;;;;;;14.20;99.90;;;;;;6143559;23;19909;-81
2021/11/14 07:48:43;;;;;;;;;;;14.30;99.90;;;;;;6143392;23;19916;-81
2021/11/14 07:51:09;;;;;;;;;;;14.30;99.90;;;;;;6143148;23;19928;-80
2021/11/14 07:53:35;;;;;;;;;;;14.30;99.90;;;;;;6142372;23;20353;-80
2021/11/14 07:56:00;;;;;;;;;;;14.30;99.90;;;;;;6142365;23;20242;-79
2021/11/14 07:58:26;;;;;;;;;;;14.40;99.90;;;;;;6142923;23;19975;-80
2021/11/14 08:00:51;;;;;;;;;;;14.40;99.90;;;;;;6141730;23;20230;-80
2021/11/14 08:03:17;;;;;;;;;;;14.40;99.90;;;;;;6143013;23;19912;-80
2021/11/14 08:05:43;;;;;;;;;;;14.50;99.90;;;;;;6142879;23;19897;-80
2021/11/14 08:08:09;;;;;;;;;;;14.50;99.90;;;;;;6116542;23;19905;-79
2021/11/14 08:10:37;;;;;;;;;;;14.60;99.90;;;;;;6142931;23;19937;-80
2021/11/14 08:13:03;;;;;;;;;;;14.60;99.90;;;;;;6141929;23;19916;-80
2021/11/14 08:15:29;;;;;;;;;;;14.80;99.90;;;;;;6142233;23;19905;-80
2021/11/14 08:17:55;;;;;;;;;;;14.80;99.90;;;;;;6142489;23;19998;-80
2021/11/14 08:20:21;;;;;;;;;;;14.80;99.90;;;;;;6142375;23;20236;-79
2021/11/14 08:22:47;;;;;;;;;;;15.00;99.90;;;;;;6146837;23;19917;-79
2021/11/14 08:25:14;;;;;;;;;;;15.20;99.90;;;;;;6153165;23;19897;-80
2021/11/14 08:27:39;;;;;;;;;;;15.30;99.90;;;;;;6152554;23;19931;-79
2021/11/14 08:30:07;;;;;;;;;;;15.50;99.90;;;;;;6150005;23;19909;-80
2021/11/14 08:32:33;;;;;;;;;;;15.50;99.90;;;;;;6116683;23;19911;-80
2021/11/14 08:34:59;;;;;;;;;;;15.60;99.90;;;;;;6132173;23;19955;-80
2021/11/14 08:37:25;;;;;;;;;;;15.80;99.90;;;;;;6136249;23;19905;-80
2021/11/14 08:39:50;;;;;;;;;;;15.80;99.90;;;;;;6142165;23;19912;-80
2021/11/14 08:42:16;;;;;;;;;;;15.90;99.90;;;;;;6143506;23;19992;-80
2021/11/14 08:44:42;;;;;;;;;;;15.90;99.90;;;;;;6143715;23;19913;-80
2021/11/14 08:47:07;;;;;;;;;;;16.00;99.90;;;;;;6144575;23;19920;-81
2021/11/14 08:49:33;;;;;;;;;;;16.00;99.90;;;;;;6144039;23;19905;-81
2021/11/14 08:51:59;;;;;;;;;;;16.10;99.90;;;;;;6117879;23;19905;-82
2021/11/14 08:54:25;;;;;;;;;;;16.20;99.90;;;;;;6145022;23;19911;-81
2021/11/14 08:56:51;;;;;;;;;;;16.30;99.90;;;;;;6144203;23;19940;-82
2021/11/14 08:59:16;;;;;;;;;;;16.30;99.90;;;;;;6144602;23;19905;-81
2021/11/14 09:01:42;;;;;;;;;;;16.30;99.90;;;;;;6142027;23;19912;-81
2021/11/14 09:04:08;;;;;;;;;;;16.30;99.90;;;;;;6142313;23;19905;-80
2021/11/14 09:06:37;;;;;;;;;;;16.30;99.90;;;;;;6142388;23;19921;-82
2021/11/14 09:09:10;;;;;;;;;;;16.30;99.90;;;;;;6142991;23;19905;-81
2021/11/14 09:11:39;;;;;;;;;;;16.40;99.90;;;;;;6143149;23;19928;-80
2021/11/14 09:14:05;;;;;;;;;;;16.40;99.90;;;;;;6144326;23;19909;-82
2021/11/14 09:16:30;;;;;;;;;;;16.50;99.90;;;;;;6145321;23;19916;-81
2021/11/14 09:18:56;;;;;;;;;;;16.50;99.90;;;;;;6144443;23;20207;-81
2021/11/14 09:21:22;;;;;;;;;;;16.60;99.90;;;;;;6144447;23;19905;-82
2021/11/14 09:23:49;;;;;;;;;;;16.70;99.90;;;;;;6144132;23;19905;-81
2021/11/14 09:26:14;;;;;;;;;;;16.70;99.90;;;;;;6144878;23;19912;-81
2021/11/14 09:28:42;;;;;;;;;;;16.80;99.90;;;;;;6133801;23;19915;-74
2021/11/14 09:31:09;;;;;;;;;;;16.80;99.90;;;;;;6127278;23;19905;-74
2021/11/14 09:33:35;;;;;;;;;;;16.70;99.90;;;;;;6101159;23;20273;-74
2021/11/14 09:36:01;;;;;;;;;;;16.70;99.90;;;;;;6126769;23;19979;-74
2021/11/14 09:38:26;;;;;;;;;;;16.80;99.90;;;;;;6126578;23;19905;-76
2021/11/14 09:40:52;;;;;;;;;;;16.70;99.90;;;;;;6126607;23;19920;-74
2021/11/14 09:43:19;;;;;;;;;;;16.80;99.90;;;;;;6100545;23;19912;-73
2021/11/14 09:45:45;;;;;;;;;;;16.80;99.90;;;;;;6126369;23;19913;-72
2021/11/14 09:48:11;;;;;;;;;;;16.80;99.90;;;;;;6126150;23;19984;-72
2021/11/14 09:50:37;;;;;;;;;;;16.60;99.90;;;;;;6100483;23;19909;-76
2021/11/14 09:53:04;;;;;;;;;;;16.60;99.90;;;;;;6125586;23;19905;-74
2021/11/14 09:55:34;;;;;;;;;;;16.60;99.90;;;;;;6125247;23;19905;-74
2021/11/14 09:58:00;;;;;;;;;;;16.60;99.90;;;;;;6124170;23;19921;-73
2021/11/14 10:00:28;;;;;;;;;;;16.50;99.90;;;;;;6126191;23;19911;-76
2021/11/14 10:02:54;;;;;;;;;;;16.40;99.90;;;;;;6125834;23;19909;-76
2021/11/14 10:05:19;;;;;;;;;;;16.30;99.90;;;;;;6100022;23;19911;-75
2021/11/14 10:07:58;;;;;;;;;;;16.20;99.90;;;;;;6126331;23;19986;-76
2021/11/14 10:10:27;;;;;;;;;;;16.10;99.90;;;;;;6126500;23;20196;-75
2021/11/14 10:12:53;;;;;;;;;;;16.10;99.90;;;;;;6126502;23;20437;-75
2021/11/14 10:15:21;;;;;;;;;;;16.10;99.90;;;;;;6127180;23;19905;-76
2021/11/14 10:17:50;;;;;;;;;;;16.20;99.90;;;;;;6127278;23;20353;-76
2021/11/14 10:20:19;;;;;;;;;;;16.30;99.90;;;;;;6127728;23;19932;-76
2021/11/14 10:22:49;;;;;;;;;;;16.40;99.90;;;;;;6127448;23;19909;-77
2021/11/14 10:25:16;;;;;;;;;;;16.50;99.90;;;;;;6101009;23;20300;-77
2021/11/14 10:27:42;;;;;;;;;;;16.50;99.90;;;;;;6144763;23;19909;-76
2021/11/14 10:30:10;;;;;;;;;;;16.50;99.90;;;;;;6134882;23;19913;-77
2021/11/14 10:32:36;;;;;;;;;;;16.40;99.90;;;;;;6131627;23;19912;-77
2021/11/14 10:35:03;;;;;;;;;;;16.30;99.90;;;;;;6126689;23;20242;-77
2021/11/14 10:37:29;;;;;;;;;;;16.30;99.90;;;;;;6126588;23;20310;-77
2021/11/14 10:39:56;;;;;;;;;;;16.40;99.90;;;;;;6126651;23;20334;-76
2021/11/14 10:42:24;;;;;;;;;;;16.40;99.90;;;;;;6126937;23;19905;-76
2021/11/14 10:44:51;;;;;;;;;;;16.50;99.90;;;;;;6100357;23;19987;-77
2021/11/14 10:47:22;;;;;;;;;;;16.50;99.90;;;;;;6125615;23;19932;-76
2021/11/14 10:49:51;;;;;;;;;;;16.40;99.90;;;;;;6125948;23;19920;-77
2021/11/14 10:52:17;;;;;;;;;;;16.50;99.90;;;;;;6126434;23;19984;-78
2021/11/14 10:54:43;;;;;;;;;;;16.50;99.90;;;;;;6128569;23;19936;-78
2021/11/14 10:57:09;;;;;;;;;;;16.50;99.90;;;;;;6125879;23;20348;-76
2021/11/14 10:59:35;;;;;;;;;;;16.50;99.90;;;;;;6127179;23;19905;-77
2021/11/14 11:02:03;;;;;;;;;;;16.50;99.90;;;;;;6126813;23;19912;-77
2021/11/14 11:04:29;;;;;;;;;;;16.40;99.90;;;;;;6126926;23;19905;-76
2021/11/14 11:06:54;;;;;;;;;;;16.40;99.90;;;;;;6126112;23;19988;-76
2021/11/14 11:09:29;;;;;;;;;;;16.30;99.90;;;;;;6126503;23;19912;-76
2021/11/14 11:11:56;;;;;;;;;;;16.20;99.90;;;;;;6126535;23;19972;-76
2021/11/14 11:14:25;;;;;;;;;;;16.20;99.90;;;;;;6126763;23;20230;-76
2021/11/14 11:16:51;;;;;;;;;;;16.10;99.90;;;;;;6125733;23;19905;-76
2021/11/14 11:19:23;;;;;;;;;;;16.10;99.90;;;;;;6125618;23;19905;-76
2021/11/14 11:21:49;;;;;;;;;;;16.10;99.90;;;;;;6128442;23;19911;-81
2021/11/14 11:24:18;;;;;;;;;;;16.20;99.90;;;;;;6128314;23;19905;-77
2021/11/14 11:26:54;;;;;;;;;;;16.20;99.90;;;;;;6127902;23;20281;-79
2021/11/14 11:29:20;;;;;;;;;;;16.10;99.90;;;;;;6128103;23;19904;-78
2021/11/14 11:31:47;;;;;;;;;;;16.10;99.90;;;;;;6128509;23;20163;-78
2021/11/14 11:34:14;;;;;;;;;;;16.20;99.90;;;;;;6128138;23;19905;-77
2021/11/14 11:36:40;;;;;;;;;;;16.30;99.90;;;;;;6128111;23;19920;-78
2021/11/14 11:39:05;;;;;;;;;;;16.30;99.90;;;;;;6101664;23;19983;-78
2021/11/14 11:41:31;;;;;;;;;;;16.20;99.90;;;;;;6127873;23;19952;-78
2021/11/14 11:43:57;;;;;;;;;;;16.30;99.90;;;;;;6127885;23;19909;-77
2021/11/14 11:46:33;;;;;;;;;;;16.20;99.90;;;;;;6128062;23;20322;-78
2021/11/14 11:48:59;;;;;;;;;;;16.00;99.90;;;;;;6128378;23;19905;-77
2021/11/14 11:51:30;;;;;;;;;;;15.90;99.90;;;;;;6128041;23;20229;-77
2021/11/14 11:53:57;;;;;;;;;;;16.00;99.90;;;;;;6128185;23;19905;-77
2021/11/14 11:56:32;;;;;;;;;;;15.90;99.90;;;;;;6127077;23;19964;-77
2021/11/14 11:58:58;;;;;;;;;;;15.90;99.90;;;;;;6127454;23;20351;-77
2021/11/14 12:01:32;;;;;;;;;;;15.90;99.90;;;;;;6126368;23;19915;-78
2021/11/14 12:04:15;;;;;;;;;;;15.90;99.90;;;;;;6128056;23;20329;-77
2021/11/14 12:06:44;;;;;;;;;;;16.10;99.90;;;;;;6126844;23;19909;-77
2021/11/14 12:09:11;;;;;;;;;;;16.00;99.90;;;;;;6126961;23;19996;-77
2021/11/14 12:11:38;;;;;;;;;;;15.90;99.90;;;;;;6127666;23;20256;-80
2021/11/14 12:14:22;;;;;;;;;;;15.80;99.90;;;;;;6128007;23;19980;-77
2021/11/14 12:16:59;;;;;;;;;;;15.70;99.90;;;;;;6127289;23;19924;-77
2021/11/14 12:19:25;;;;;;;;;;;15.70;99.90;;;;;;6101261;23;19909;-78
2021/11/14 12:21:58;;;;;;;;;;;15.70;99.90;;;;;;6127570;23;19905;-77
2021/11/14 12:24:24;;;;;;;;;;;15.70;99.90;;;;;;6127363;23;19908;-77
2021/11/14 12:26:50;;;;;;;;;;;15.70;99.90;;;;;;6124500;23;19919;-77
2021/11/14 12:29:28;;;;;;;;;;;15.60;99.90;;;;;;6125175;23;19936;-78
2021/11/14 12:31:56;;;;;;;;;;;15.50;99.90;;;;;;6100331;23;19905;-79
2021/11/14 12:34:27;;;;;;;;;;;15.40;99.90;;;;;;6126652;23;19928;-77
2021/11/14 12:37:04;;;;;;;;;;;15.40;99.90;;;;;;6126337;23;19905;-80
2021/11/14 12:39:31;;;;;;;;;;;15.40;99.90;;;;;;6126586;23;19905;-76
2021/11/14 12:41:59;;;;;;;;;;;15.40;99.90;;;;;;6127184;23;19916;-77
2021/11/14 12:44:29;;;;;;;;;;;15.40;99.90;;;;;;6126633;23;19917;-77
2021/11/14 12:46:56;;;;;;;;;;;15.50;99.90;;;;;;6126383;23;19909;-77
2021/11/14 12:49:21;;;;;;;;;;;15.50;99.90;;;;;;6127438;23;19928;-77
2021/11/14 12:51:51;;;;;;;;;;;15.60;99.90;;;;;;6127994;23;20227;-78
2021/11/14 12:54:17;;;;;;;;;;;15.60;99.90;;;;;;6127386;23;19911;-78
2021/11/14 12:56:44;;;;;;;;;;;15.70;99.90;;;;;;6127020;23;19905;-78
2021/11/14 12:59:18;;;;;;;;;;;15.70;99.90;;;;;;6127854;23;19917;-78
2021/11/14 13:01:45;;;;;;;;;;;15.70;99.90;;;;;;6128743;23;19960;-77
2021/11/14 13:04:21;;;;;;;;;;;15.70;99.90;;;;;;6128618;23;19912;-76
2021/11/14 13:06:47;;;;;;;;;;;15.60;99.90;;;;;;6128952;23;19992;-76
2021/11/14 13:09:13;;;;;;;;;;;15.50;99.90;;;;;;6129248;23;19905;-77
2021/11/14 13:11:40;;;;;;;;;;;15.50;99.90;;;;;;6130001;23;20245;-78
2021/11/14 13:14:08;;;;;;;;;;;15.40;99.90;;;;;;6127809;23;19905;-77
2021/11/14 13:16:34;;;;;;;;;;;15.40;99.90;;;;;;6100730;23;19932;-77
2021/11/14 13:19:03;;;;;;;;;;;15.40;99.90;;;;;;6101934;23;19905;-77
2021/11/14 13:21:30;;;;;;;;;;;15.40;99.90;;;;;;6127030;23;19905;-77
2021/11/14 13:23:58;;;;;;;;;;;15.50;99.90;;;;;;6127089;23;19955;-77
2021/11/14 13:26:30;;;;;;;;;;;15.50;99.90;;;;;;6126518;23;19947;-77
2021/11/14 13:28:56;;;;;;;;;;;15.40;99.90;;;;;;6126764;23;19905;-77
2021/11/14 13:31:23;;;;;;;;;;;15.40;99.90;;;;;;6126643;23;19928;-77
2021/11/14 13:34:02;;;;;;;;;;;15.50;99.90;;;;;;6125856;23;19905;-77
2021/11/14 13:36:30;;;;;;;;;;;15.40;99.90;;;;;;6125407;23;19933;-77
2021/11/14 13:38:56;;;;;;;;;;;15.30;99.90;;;;;;6126451;23;20344;-77
2021/11/14 13:41:22;;;;;;;;;;;15.20;99.90;;;;;;6126455;23;19912;-77
2021/11/14 13:43:52;;;;;;;;;;;15.10;99.90;;;;;;6126407;23;19905;-76
2021/11/14 13:46:17;;;;;;;;;;;14.90;99.90;;;;;;6125457;23;19924;-76
2021/11/14 13:48:49;;;;;;;;;;;14.70;99.90;;;;;;6126404;23;19905;-76
2021/11/14 13:51:18;;;;;;;;;;;14.70;99.90;;;;;;6125409;23;20330;-76
2021/11/14 13:53:44;;;;;;;;;;;14.60;99.90;;;;;;6100540;23;20222;-77
2021/11/14 13:56:10;;;;;;;;;;;14.70;99.90;;;;;;6127402;23;19943;-77
2021/11/14 13:58:44;;;;;;;;;;;14.70;99.90;;;;;;6134116;23;19905;-77
2021/11/14 14:01:10;;;;;;;;;;;14.70;99.90;;;;;;6137289;23;19979;-77
2021/11/14 14:03:40;;;;;;;;;;;14.80;99.90;;;;;;6134680;23;19928;-77
2021/11/14 14:06:07;;;;;;;;;;;14.70;99.90;;;;;;6126535;23;20333;-78
2021/11/14 14:08:33;;;;;;;;;;;14.70;99.90;;;;;;6127033;23;19893;-78
2021/11/14 14:11:00;;;;;;;;;;;14.70;99.90;;;;;;6127028;23;19912;-78
2021/11/14 14:13:26;;;;;;;;;;;14.60;99.90;;;;;;6101989;23;19948;-78
2021/11/14 14:15:52;;;;;;;;;;;14.70;99.90;;;;;;6128433;23;19905;-77